Range, Alabama
Current Conditions -  °F | °C
As of 11:53 AM on Thursday 18 Dec 2014 (Local Time) from KGZH Reporting Station
Scattered Clouds Scattered Clouds  
Wind Chill: 59°   Ceiling: Unl
Heat Index: 59°   Visibility: 10mi
Dew Point: 34°   Wind: 0mph
Humidity: 39%   Direction: NA
Pressure: 30.17"   Gusts: NA
Location:  31.31°N, 87.23°W
Report Text: KGZH 181753Z AUTO 00000KT 10SM SCT110 15/01 A3017 RMK AO2 SLP217 T01500011 10150 20033 58021
Loading
Personal Weather Stations






























Interactive Weather Map New forecast layout! Learn more

10-Day Weather Forecast

Advertisements
Track Severe Weather on mobile